createdAt,value
2017-07-08T00:01:38.721Z,20.80
2017-07-08T00:04:07.155Z,20.90
2017-07-08T00:06:35.678Z,21.00
2017-07-08T00:09:03.847Z,21.10
2017-07-08T00:11:32.267Z,21.20
2017-07-08T00:14:00.737Z,21.30
2017-07-08T00:16:29.169Z,21.40
2017-07-08T00:18:57.252Z,21.40
2017-07-08T00:21:26.468Z,21.20
2017-07-08T00:23:55.651Z,21.10
2017-07-08T00:26:24.839Z,21.00
2017-07-08T00:28:54.068Z,20.80
2017-07-08T00:31:22.492Z,20.80
2017-07-08T00:33:50.996Z,20.70
2017-07-08T00:36:19.620Z,20.50
2017-07-08T00:38:48.060Z,20.50
2017-07-08T00:41:16.514Z,20.60
2017-07-08T00:43:44.931Z,20.60
2017-07-08T00:46:14.260Z,20.60
2017-07-08T00:48:43.360Z,20.60
2017-07-08T00:51:11.811Z,20.70
2017-07-08T00:53:40.230Z,20.70
2017-07-08T00:56:08.304Z,20.70
2017-07-08T00:58:38.191Z,20.50
2017-07-08T01:01:07.408Z,20.40
2017-07-08T01:03:36.191Z,20.30
2017-07-08T01:06:05.387Z,20.00
2017-07-08T01:08:34.588Z,20.00
2017-07-08T01:11:03.789Z,19.90
2017-07-08T01:13:32.984Z,19.90
2017-07-08T01:16:02.195Z,19.90
2017-07-08T01:18:30.639Z,19.90
2017-07-08T01:20:58.384Z,20.00
2017-07-08T01:23:26.959Z,19.90
2017-07-08T01:25:55.624Z,19.80
2017-07-08T01:28:24.324Z,19.70
2017-07-08T01:30:52.788Z,19.60
2017-07-08T01:33:21.223Z,19.50
2017-07-08T01:35:49.651Z,19.50
2017-07-08T01:38:18.191Z,19.50
2017-07-08T01:40:46.611Z,19.40
2017-07-08T01:43:15.075Z,19.30
2017-07-08T01:45:44.263Z,19.30
2017-07-08T01:48:12.693Z,19.20
2017-07-08T01:50:41.250Z,19.20
2017-07-08T01:53:10.097Z,19.20
2017-07-08T01:55:37.912Z,19.20
2017-07-08T01:58:06.589Z,19.30
2017-07-08T02:00:35.791Z,19.20
2017-07-08T02:03:04.214Z,19.20
2017-07-08T02:05:32.684Z,19.30
2017-07-08T02:08:01.369Z,19.20
2017-07-08T02:10:29.779Z,19.20
2017-07-08T02:12:58.224Z,19.20
2017-07-08T02:15:26.656Z,19.20
2017-07-08T02:17:55.372Z,19.10
2017-07-08T02:20:24.567Z,19.20
2017-07-08T02:22:53.156Z,19.20
2017-07-08T02:25:22.341Z,19.20
2017-07-08T02:27:51.552Z,19.30
2017-07-08T02:30:20.739Z,19.30
2017-07-08T02:32:49.935Z,19.30
2017-07-08T02:35:19.148Z,19.30
2017-07-08T02:37:48.347Z,19.10
2017-07-08T02:40:17.560Z,19.00
2017-07-08T02:42:46.252Z,18.90
2017-07-08T02:45:14.700Z,18.90
2017-07-08T02:47:43.134Z,18.70
2017-07-08T02:50:11.567Z,18.60
2017-07-08T02:52:40.259Z,18.60
2017-07-08T02:55:08.776Z,18.60
2017-07-08T02:57:37.239Z,18.60
2017-07-08T03:00:06.428Z,18.60
2017-07-08T03:02:35.634Z,18.60
2017-07-08T03:05:04.831Z,18.50
2017-07-08T03:07:34.024Z,18.50
2017-07-08T03:10:03.239Z,18.60
2017-07-08T03:12:31.664Z,18.50
2017-07-08T03:15:00.099Z,18.60
2017-07-08T03:17:28.543Z,18.60
2017-07-08T03:19:57.007Z,18.40
2017-07-08T03:22:25.484Z,18.40
2017-07-08T03:24:53.924Z,18.30
2017-07-08T03:27:22.365Z,18.20
2017-07-08T03:29:50.806Z,18.10
2017-07-08T03:32:19.498Z,18.10
2017-07-08T03:34:47.940Z,18.10
2017-07-08T03:37:17.142Z,18.00
2017-07-08T03:39:46.343Z,18.00
2017-07-08T03:42:15.552Z,18.10
2017-07-08T03:44:43.999Z,18.00
2017-07-08T03:47:12.442Z,18.20
2017-07-08T03:49:40.892Z,18.30
2017-07-08T03:52:10.099Z,18.10
2017-07-08T03:54:38.273Z,18.10
2017-07-08T03:57:06.955Z,18.20
2017-07-08T03:59:36.162Z,18.30
2017-07-08T04:02:04.594Z,18.20
2017-07-08T04:04:33.044Z,18.30
2017-07-08T04:07:01.492Z,18.30
2017-07-08T04:09:30.696Z,18.30
2017-07-08T04:11:59.200Z,18.30
2017-07-08T04:14:26.961Z,18.30
2017-07-08T04:16:55.392Z,18.30
2017-07-08T04:19:23.868Z,18.30
2017-07-08T04:21:52.530Z,18.40
2017-07-08T04:24:21.208Z,18.40
2017-07-08T04:26:49.123Z,18.40
2017-07-08T04:29:17.609Z,18.30
2017-07-08T04:31:46.139Z,18.40
2017-07-08T04:34:14.588Z,18.50
2017-07-08T04:36:43.444Z,18.70
2017-07-08T04:39:11.884Z,18.60
2017-07-08T04:41:40.315Z,18.70
2017-07-08T04:44:08.767Z,18.70
2017-07-08T04:46:36.911Z,18.70
2017-07-08T04:49:06.116Z,18.90
2017-07-08T04:51:35.327Z,19.10
2017-07-08T04:54:03.772Z,19.00
2017-07-08T04:56:32.213Z,19.20
2017-07-08T04:59:00.784Z,19.50
2017-07-08T05:01:29.207Z,19.80
2017-07-08T05:03:57.663Z,20.10
2017-07-08T05:06:26.081Z,20.30
2017-07-08T05:08:54.523Z,20.60
2017-07-08T05:11:22.995Z,20.80
2017-07-08T05:13:51.438Z,21.00
2017-07-08T05:16:20.627Z,21.30
2017-07-08T05:18:49.823Z,21.30
2017-07-08T05:21:18.512Z,21.30
2017-07-08T05:23:46.948Z,21.30
2017-07-08T05:26:15.700Z,21.40
2017-07-08T05:28:44.895Z,21.70
2017-07-08T05:31:14.096Z,21.70
2017-07-08T05:33:43.310Z,21.80
2017-07-08T05:36:11.743Z,21.70
2017-07-08T05:38:40.192Z,21.80
2017-07-08T05:41:08.633Z,22.00
2017-07-08T05:43:37.947Z,22.20
2017-07-08T05:46:07.120Z,22.20
2017-07-08T05:48:35.827Z,22.20
2017-07-08T05:51:05.023Z,22.20
2017-07-08T05:53:34.220Z,22.20
2017-07-08T05:56:03.446Z,22.30
2017-07-08T05:58:31.908Z,22.30
2017-07-08T06:01:01.127Z,22.60
2017-07-08T06:03:29.544Z,22.50
2017-07-08T06:05:57.980Z,22.80
2017-07-08T06:08:26.425Z,23.00
2017-07-08T06:10:54.850Z,23.20
2017-07-08T06:13:23.276Z,23.40
2017-07-08T06:15:51.768Z,23.60
2017-07-08T06:18:20.891Z,23.70
2017-07-08T06:20:50.215Z,24.00
2017-07-08T06:23:18.803Z,24.00
2017-07-08T06:25:48.915Z,24.30
2017-07-08T06:28:17.353Z,24.40
2017-07-08T06:30:45.780Z,24.50
2017-07-08T06:33:14.227Z,24.30
2017-07-08T06:35:42.319Z,24.30
2017-07-08T06:38:11.021Z,24.30
2017-07-08T06:40:39.709Z,24.30
2017-07-08T06:43:08.227Z,24.40
2017-07-08T06:45:36.655Z,24.50
2017-07-08T06:48:05.860Z,24.80
2017-07-08T06:50:34.547Z,24.80
2017-07-08T06:53:02.907Z,24.80
2017-07-08T06:55:32.092Z,24.80
2017-07-08T06:58:00.518Z,24.80
2017-07-08T07:00:28.963Z,24.90
2017-07-08T07:02:57.689Z,24.70
2017-07-08T07:05:26.162Z,24.50
2017-07-08T07:07:55.340Z,24.10
2017-07-08T07:10:24.613Z,23.90
2017-07-08T07:12:53.081Z,23.80
2017-07-08T07:15:21.505Z,23.90
2017-07-08T07:17:50.691Z,24.00
2017-07-08T07:20:19.156Z,23.90
2017-07-08T07:22:47.595Z,24.10
2017-07-08T07:25:16.055Z,24.30
2017-07-08T07:27:45.239Z,24.40
2017-07-08T07:30:13.956Z,24.30
2017-07-08T07:32:42.370Z,24.50
2017-07-08T07:35:10.811Z,24.50
2017-07-08T07:37:39.247Z,24.50
2017-07-08T07:40:07.728Z,24.60
2017-07-08T07:42:36.168Z,24.70
2017-07-08T07:45:04.596Z,24.80
2017-07-08T07:47:33.032Z,24.90
2017-07-08T07:50:01.459Z,24.90
2017-07-08T07:52:29.996Z,25.00
2017-07-08T07:54:58.432Z,25.10
2017-07-08T07:57:26.889Z,25.20
2017-07-08T07:59:55.325Z,25.30
2017-07-08T08:02:23.868Z,25.30
2017-07-08T08:04:52.323Z,25.40
2017-07-08T08:07:20.092Z,25.60
2017-07-08T08:09:48.512Z,25.70
2017-07-08T08:12:17.661Z,25.70
2017-07-08T08:14:46.428Z,25.80
2017-07-08T08:17:14.868Z,25.90
2017-07-08T08:19:43.317Z,26.00
2017-07-08T08:22:11.811Z,26.10
2017-07-08T08:24:40.216Z,26.20
2017-07-08T08:27:08.668Z,26.50
2017-07-08T08:29:37.089Z,26.40
2017-07-08T08:32:05.529Z,26.50
2017-07-08T08:34:33.967Z,26.60
2017-07-08T08:37:02.419Z,26.70
2017-07-08T08:39:30.882Z,26.80
2017-07-08T08:41:58.967Z,26.90
2017-07-08T08:44:27.432Z,26.90
2017-07-08T08:46:55.901Z,26.90
2017-07-08T08:49:24.455Z,27.00
2017-07-08T08:51:52.883Z,27.00
2017-07-08T08:54:21.322Z,27.10
2017-07-08T08:56:49.848Z,27.10
2017-07-08T08:59:18.309Z,27.00
2017-07-08T09:01:46.749Z,27.30
2017-07-08T09:04:15.201Z,27.30
2017-07-08T09:06:43.458Z,27.70
2017-07-08T09:09:11.692Z,27.60
2017-07-08T09:11:40.122Z,27.50
2017-07-08T09:14:08.827Z,27.60
2017-07-08T09:16:37.534Z,27.60
2017-07-08T09:19:05.971Z,27.70
2017-07-08T09:21:34.415Z,27.90
2017-07-08T09:24:02.840Z,28.00
2017-07-08T09:26:31.359Z,27.80
2017-07-08T09:28:59.787Z,27.80
2017-07-08T09:31:28.209Z,27.20
2017-07-08T09:33:56.664Z,28.20
2017-07-08T09:36:25.083Z,28.40
2017-07-08T09:38:53.545Z,28.60
2017-07-08T09:41:21.311Z,28.70
2017-07-08T09:43:50.447Z,28.80
2017-07-08T09:46:18.867Z,29.20
2017-07-08T09:48:47.281Z,29.50
2017-07-08T09:51:15.821Z,29.40
2017-07-08T09:53:44.253Z,29.30
2017-07-08T09:56:12.719Z,29.20
2017-07-08T09:58:41.163Z,29.40
2017-07-08T10:01:09.589Z,29.20
2017-07-08T10:03:38.058Z,29.30
2017-07-08T10:06:06.472Z,29.70
2017-07-08T10:08:34.917Z,29.90
2017-07-08T10:11:03.607Z,29.90
2017-07-08T10:13:32.027Z,29.90
2017-07-08T10:16:00.514Z,29.80
2017-07-08T10:18:28.940Z,29.40
2017-07-08T10:20:57.395Z,28.90
2017-07-08T10:23:25.855Z,28.60
2017-07-08T10:25:54.304Z,28.80
2017-07-08T10:28:22.778Z,29.00
2017-07-08T10:30:51.220Z,29.30
2017-07-08T10:33:19.638Z,29.20
2017-07-08T10:35:48.072Z,29.10
2017-07-08T10:38:16.520Z,29.00
2017-07-08T10:40:44.947Z,28.80
2017-07-08T10:43:13.229Z,28.60
2017-07-08T10:45:41.671Z,28.50
2017-07-08T10:48:10.124Z,28.40
2017-07-08T10:50:38.651Z,28.30
2017-07-08T10:53:07.067Z,28.30
2017-07-08T10:55:35.508Z,28.10
2017-07-08T10:58:03.975Z,28.00
2017-07-08T11:00:32.399Z,28.00
2017-07-08T11:03:01.782Z,28.00
2017-07-08T11:05:30.192Z,28.00
2017-07-08T11:07:58.678Z,28.30
2017-07-08T11:10:27.122Z,28.80
2017-07-08T11:12:55.563Z,29.20
2017-07-08T11:15:23.998Z,29.20
2017-07-08T11:17:52.444Z,29.40
2017-07-08T11:20:20.938Z,29.50
2017-07-08T11:22:49.363Z,29.70
2017-07-08T11:25:18.068Z,29.90
2017-07-08T11:27:46.520Z,29.60
2017-07-08T11:30:15.226Z,29.50
2017-07-08T11:32:43.652Z,29.30
2017-07-08T11:35:12.103Z,29.30
2017-07-08T11:37:40.538Z,29.00
2017-07-08T11:40:09.002Z,28.90
2017-07-08T11:42:37.431Z,28.50
2017-07-08T11:45:05.981Z,28.30
2017-07-08T11:47:34.512Z,28.10
2017-07-08T11:50:02.948Z,27.80
2017-07-08T11:52:31.389Z,27.40
2017-07-08T11:55:00.071Z,27.80
2017-07-08T11:57:28.536Z,28.70
2017-07-08T11:59:56.927Z,29.20
2017-07-08T12:02:25.366Z,29.20
2017-07-08T12:04:53.836Z,28.90
2017-07-08T12:07:22.266Z,28.60
2017-07-08T12:09:50.708Z,28.70
2017-07-08T12:12:19.157Z,28.80
2017-07-08T12:14:47.608Z,29.20
2017-07-08T12:17:16.380Z,29.80
2017-07-08T12:19:44.901Z,30.30
2017-07-08T12:22:13.347Z,30.90
2017-07-08T12:24:41.805Z,31.20
2017-07-08T12:27:10.240Z,31.40
2017-07-08T12:29:38.639Z,31.30
2017-07-08T12:32:07.086Z,31.60
2017-07-08T12:34:35.547Z,32.10
2017-07-08T12:37:03.991Z,31.90
2017-07-08T12:39:32.463Z,31.60
2017-07-08T12:42:00.899Z,31.30
2017-07-08T12:44:29.340Z,30.90
2017-07-08T12:46:57.794Z,30.40
2017-07-08T12:49:26.233Z,30.10
2017-07-08T12:51:54.667Z,30.20
2017-07-08T12:54:23.116Z,30.10
2017-07-08T12:56:51.868Z,30.20
2017-07-08T12:59:20.313Z,30.40
2017-07-08T13:01:48.758Z,30.70
2017-07-08T13:04:17.170Z,31.00
2017-07-08T13:06:45.622Z,31.00
2017-07-08T13:09:14.052Z,31.00
2017-07-08T13:11:42.500Z,30.90
2017-07-08T13:14:10.941Z,30.70
2017-07-08T13:16:39.412Z,30.70
2017-07-08T13:19:07.871Z,30.30
2017-07-08T13:21:36.322Z,30.10
2017-07-08T13:24:04.791Z,29.60
2017-07-08T13:26:33.247Z,29.50
2017-07-08T13:29:01.676Z,29.20
2017-07-08T13:31:30.160Z,29.20
2017-07-08T13:33:58.625Z,29.30
2017-07-08T13:36:27.080Z,29.00
2017-07-08T13:38:55.784Z,29.00
2017-07-08T13:41:24.239Z,28.90
2017-07-08T13:43:53.082Z,28.50
2017-07-08T13:46:21.532Z,28.40
2017-07-08T13:48:49.959Z,28.60
2017-07-08T13:51:18.423Z,28.90
2017-07-08T13:53:46.876Z,29.10
2017-07-08T13:56:15.315Z,29.20
2017-07-08T13:58:43.762Z,29.50
2017-07-08T14:01:12.194Z,30.00
2017-07-08T14:03:40.654Z,29.90
2017-07-08T14:06:09.103Z,30.40
2017-07-08T14:08:37.640Z,31.00
2017-07-08T14:11:06.080Z,31.80
2017-07-08T14:13:34.516Z,32.50
2017-07-08T14:16:03.203Z,32.40
2017-07-08T14:18:31.628Z,32.60
2017-07-08T14:21:00.070Z,32.30
2017-07-08T14:23:28.503Z,31.90
2017-07-08T14:25:56.935Z,32.40
2017-07-08T14:28:25.405Z,32.60
2017-07-08T14:30:54.038Z,32.80
2017-07-08T14:33:23.266Z,33.00
2017-07-08T14:35:51.687Z,33.00
2017-07-08T14:38:20.125Z,33.10
2017-07-08T14:40:48.557Z,33.00
2017-07-08T14:43:17.002Z,31.60
2017-07-08T14:45:45.436Z,31.50
2017-07-08T14:48:13.877Z,32.10
2017-07-08T14:50:42.322Z,32.40
2017-07-08T14:53:10.759Z,32.00
2017-07-08T14:55:39.193Z,32.10
2017-07-08T14:58:08.440Z,32.70
2017-07-08T15:00:36.865Z,32.80
2017-07-08T15:03:05.293Z,33.00
2017-07-08T15:05:33.752Z,33.30
2017-07-08T15:08:02.195Z,33.30
2017-07-08T15:10:30.688Z,33.90
2017-07-08T15:12:59.388Z,33.50
2017-07-08T15:15:27.837Z,33.00
2017-07-08T15:17:56.264Z,32.70
2017-07-08T15:20:24.739Z,32.90
2017-07-08T15:22:53.179Z,33.50
2017-07-08T15:25:22.447Z,33.70
2017-07-08T15:27:51.611Z,33.70
2017-07-08T15:30:20.292Z,33.00
2017-07-08T15:32:48.882Z,32.90
2017-07-08T15:35:17.742Z,33.40
2017-07-08T15:37:46.178Z,33.30
2017-07-08T15:40:15.012Z,33.60
2017-07-08T15:42:43.454Z,34.10
2017-07-08T15:45:11.914Z,33.80
2017-07-08T15:47:41.018Z,34.20
2017-07-08T15:50:10.207Z,34.50
2017-07-08T15:52:38.735Z,34.20
2017-07-08T15:55:07.264Z,34.20
2017-07-08T15:57:35.706Z,34.30
2017-07-08T16:00:04.130Z,34.10
2017-07-08T16:02:32.745Z,34.10
2017-07-08T16:05:01.182Z,34.20
2017-07-08T16:07:29.621Z,34.40
2017-07-08T16:09:58.317Z,34.50
2017-07-08T16:12:26.394Z,34.40
2017-07-08T16:14:54.847Z,34.80
2017-07-08T16:17:23.289Z,33.60
2017-07-08T16:19:51.746Z,33.40
2017-07-08T16:22:20.167Z,33.60
2017-07-08T16:24:48.607Z,34.40
2017-07-08T16:27:17.125Z,34.50
2017-07-08T16:29:45.585Z,34.60
2017-07-08T16:32:14.023Z,34.20
2017-07-08T16:34:42.480Z,34.30
2017-07-08T16:37:11.316Z,33.80
2017-07-08T16:39:40.788Z,33.20
2017-07-08T16:42:09.213Z,33.30
2017-07-08T16:44:37.667Z,33.00
2017-07-08T16:47:07.028Z,32.40
2017-07-08T16:49:36.144Z,32.60
2017-07-08T16:52:04.752Z,32.50
2017-07-08T16:54:33.973Z,32.50
2017-07-08T16:57:02.424Z,32.50
2017-07-08T16:59:31.175Z,32.70
2017-07-08T17:01:59.635Z,32.70
2017-07-08T17:04:28.088Z,33.20
2017-07-08T17:06:56.536Z,33.50
2017-07-08T17:09:25.091Z,33.60
2017-07-08T17:11:53.517Z,33.70
2017-07-08T17:14:22.340Z,33.80
2017-07-08T17:16:50.811Z,33.40
2017-07-08T17:19:19.268Z,33.30
2017-07-08T17:21:48.557Z,33.40
2017-07-08T17:24:16.986Z,33.40
2017-07-08T17:26:45.457Z,32.10
2017-07-08T17:29:13.903Z,31.40
2017-07-08T17:31:42.356Z,31.30
2017-07-08T17:34:10.805Z,31.10
2017-07-08T17:36:39.308Z,30.70
2017-07-08T17:39:08.752Z,30.50
2017-07-08T17:41:37.189Z,30.40
2017-07-08T17:44:05.892Z,30.40
2017-07-08T17:46:34.336Z,30.30
2017-07-08T17:49:02.855Z,31.10
2017-07-08T17:51:31.283Z,31.40
2017-07-08T17:54:00.508Z,31.30
2017-07-08T17:56:28.915Z,31.30
2017-07-08T17:58:57.343Z,31.00
2017-07-08T18:01:26.568Z,30.80
2017-07-08T18:03:55.002Z,30.70
2017-07-08T18:06:23.429Z,30.30
2017-07-08T18:08:51.912Z,30.10
2017-07-08T18:11:20.344Z,30.10
2017-07-08T18:13:49.072Z,29.90
2017-07-08T18:16:18.284Z,29.70
2017-07-08T18:18:46.732Z,29.70
2017-07-08T18:21:15.193Z,29.50
2017-07-08T18:23:43.623Z,29.20
2017-07-08T18:26:12.824Z,28.60
2017-07-08T18:28:41.591Z,28.50
2017-07-08T18:31:10.240Z,28.10
2017-07-08T18:33:39.064Z,27.90
2017-07-08T18:36:08.275Z,27.80
2017-07-08T18:38:37.472Z,27.60
2017-07-08T18:41:06.673Z,27.40
2017-07-08T18:43:35.112Z,27.40
2017-07-08T18:46:03.546Z,27.40
2017-07-08T18:48:32.756Z,27.30
2017-07-08T18:51:01.193Z,27.30
2017-07-08T18:53:29.655Z,27.30
2017-07-08T18:55:58.113Z,27.40
2017-07-08T18:58:26.548Z,27.30
2017-07-08T19:00:55.000Z,27.10
2017-07-08T19:03:23.417Z,27.00
2017-07-08T19:05:51.880Z,26.90
2017-07-08T19:08:20.311Z,26.80
2017-07-08T19:10:48.765Z,26.60
2017-07-08T19:13:17.471Z,26.60
2017-07-08T19:15:45.917Z,26.50
2017-07-08T19:18:14.340Z,26.50
2017-07-08T19:20:42.784Z,26.40
2017-07-08T19:23:11.485Z,26.40
2017-07-08T19:25:39.985Z,26.30
2017-07-08T19:28:08.427Z,26.10
2017-07-08T19:30:36.885Z,26.00
2017-07-08T19:33:05.329Z,26.00
2017-07-08T19:35:34.039Z,26.10
2017-07-08T19:38:02.481Z,25.90
2017-07-08T19:40:30.920Z,25.70
2017-07-08T19:42:59.389Z,25.30
2017-07-08T19:45:28.096Z,25.30
2017-07-08T19:47:56.597Z,25.20
2017-07-08T19:50:25.295Z,25.10
2017-07-08T19:52:53.736Z,24.90
2017-07-08T19:55:22.387Z,24.90
2017-07-08T19:57:50.810Z,24.90
2017-07-08T20:00:19.273Z,24.90
2017-07-08T20:02:47.973Z,24.70
2017-07-08T20:05:16.700Z,24.60
2017-07-08T20:07:45.120Z,24.60
2017-07-08T20:10:13.563Z,24.60
2017-07-08T20:12:42.011Z,24.50
2017-07-08T20:15:11.582Z,24.50
2017-07-08T20:17:40.689Z,24.50
2017-07-08T20:20:10.181Z,24.50
2017-07-08T20:22:40.219Z,24.50
2017-07-08T20:25:09.337Z,24.40
2017-07-08T20:27:38.328Z,24.50
2017-07-08T20:30:08.283Z,24.50
2017-07-08T20:32:37.316Z,24.40
2017-07-08T20:35:06.429Z,24.40
2017-07-08T20:37:34.940Z,24.50
2017-07-08T20:40:03.614Z,24.40
2017-07-08T20:42:32.069Z,24.40
2017-07-08T20:45:00.767Z,24.30
2017-07-08T20:47:29.233Z,24.20
2017-07-08T20:49:57.656Z,24.20
2017-07-08T20:52:26.091Z,24.20
2017-07-08T20:54:54.549Z,24.20
2017-07-08T20:57:23.591Z,24.30
2017-07-08T20:59:52.553Z,24.20
2017-07-08T21:02:21.000Z,24.20
2017-07-08T21:04:49.431Z,24.30
2017-07-08T21:07:17.900Z,24.20
2017-07-08T21:09:46.330Z,24.20
2017-07-08T21:12:15.472Z,24.30
2017-07-08T21:14:43.899Z,24.30
2017-07-08T21:17:12.369Z,24.20
2017-07-08T21:19:40.796Z,24.20
2017-07-08T21:22:09.243Z,24.30
2017-07-08T21:24:37.681Z,24.20
2017-07-08T21:27:06.152Z,24.20
2017-07-08T21:29:34.587Z,24.10
2017-07-08T21:32:03.103Z,24.10
2017-07-08T21:34:31.745Z,24.00
2017-07-08T21:37:00.458Z,24.00
2017-07-08T21:39:28.890Z,24.00
2017-07-08T21:41:57.341Z,23.80
2017-07-08T21:44:26.027Z,23.80
2017-07-08T21:46:55.240Z,23.80
2017-07-08T21:49:23.719Z,23.80
2017-07-08T21:51:52.407Z,23.70
2017-07-08T21:54:20.841Z,23.50
2017-07-08T21:56:49.372Z,23.50
2017-07-08T21:59:17.803Z,23.50
2017-07-08T22:01:46.300Z,23.40
2017-07-08T22:04:14.991Z,23.40
2017-07-08T22:06:43.415Z,23.40
2017-07-08T22:09:11.859Z,23.50
2017-07-08T22:11:40.312Z,23.50
2017-07-08T22:14:08.768Z,23.40
2017-07-08T22:16:37.453Z,23.20
2017-07-08T22:19:05.907Z,23.10
2017-07-08T22:21:34.353Z,23.20
2017-07-08T22:24:02.779Z,23.20
2017-07-08T22:26:32.045Z,23.20
2017-07-08T22:29:00.472Z,23.20
2017-07-08T22:31:28.928Z,23.10
2017-07-08T22:33:57.359Z,23.20
2017-07-08T22:36:26.940Z,23.10
2017-07-08T22:38:55.388Z,23.10
2017-07-08T22:41:23.822Z,23.10
2017-07-08T22:43:52.248Z,23.00
2017-07-08T22:46:20.680Z,23.10
2017-07-08T22:48:49.133Z,23.10
2017-07-08T22:51:18.336Z,23.00
2017-07-08T22:53:47.845Z,22.90
2017-07-08T22:56:16.670Z,22.80
2017-07-08T22:58:45.095Z,22.80
2017-07-08T23:01:13.934Z,22.70
2017-07-08T23:03:42.751Z,22.60
2017-07-08T23:06:11.196Z,22.60
2017-07-08T23:08:40.007Z,22.50
2017-07-08T23:11:08.262Z,22.50
2017-07-08T23:13:37.078Z,22.40
2017-07-08T23:16:05.894Z,22.30
2017-07-08T23:18:34.333Z,22.30
2017-07-08T23:21:02.758Z,22.20
2017-07-08T23:23:31.492Z,22.10
2017-07-08T23:26:00.167Z,22.00
2017-07-08T23:28:28.612Z,21.90
2017-07-08T23:30:57.416Z,21.90
2017-07-08T23:33:25.851Z,21.90
2017-07-08T23:35:54.688Z,21.70
2017-07-08T23:38:23.495Z,21.50
2017-07-08T23:40:51.973Z,21.30
2017-07-08T23:43:20.677Z,21.40
2017-07-08T23:45:49.111Z,21.40
2017-07-08T23:48:17.664Z,21.40
2017-07-08T23:50:46.112Z,21.30
2017-07-08T23:53:15.359Z,21.10
2017-07-08T23:55:43.791Z,21.10
2017-07-08T23:58:13.088Z,21.00
